Terminal Aerodrome Forecast
Issued by NWS New Orleans/Baton Rouge, LA

Current Version | Previous Version | Text Only | Print | Product List | Glossary On
Versions: 1 2 3 4 5 6 7 8 9 10 11 12 13 14 15 16 17 18 19 20 21
000
FTUS44 KLIX 111100 RRA
TAFNEW
TAF
KNEW 111146Z 1112/1212 23004KT P6SM SKC
     FM111500 31007KT P6SM SCT040
     FM112100 VRB03KT P6SM SCT050
      TEMPO 1121/1201 34020G35KT 1SM +TSRA BKN025CB
     FM120100 00000KT P6SM BKN050
     FM120500 30004KT P6SM SCT060=

USA.gov is the U.S. government's official web portal to all federal, state and local government web resources and services.